Time;durP1;ratioP1;P1;durP2;ratioP2;P2;SDS_P1;SDS_P2;PMS_P1;PMS_P2;Temp;Humidity;BMP_temperature;BMP_pressure;BME280_temperature;BME280_humidity;BME280_pressure;Samples;Min_cycle;Max_cycle;Signal;HPM_P1;HPM_P2
2022/07/08 00:00:18;;;;;;;4.13;1.20;;;;;;;;;;5062287;28;20428;-70
2022/07/08 00:02:44;;;;;;;2.65;0.82;;;;;;;;;;5061946;28;20217;-70
2022/07/08 00:05:10;;;;;;;3.45;1.13;;;;;;;;;;5062204;28;20221;-70
2022/07/08 00:07:37;;;;;;;3.22;1.05;;;;;;;;;;5061761;28;20203;-70
2022/07/08 00:10:05;;;;;;;5.40;0.98;;;;;;;;;;5061926;28;20200;-70
2022/07/08 00:12:31;;;;;;;4.75;1.30;;;;;;;;;;5062107;28;20373;-70
2022/07/08 00:14:57;;;;;;;6.53;1.30;;;;;;;;;;5061979;28;20193;-70
2022/07/08 00:17:24;;;;;;;5.45;1.10;;;;;;;;;;5061746;28;20201;-70
2022/07/08 00:19:50;;;;;;;1.75;1.10;;;;;;;;;;5061902;28;20243;-70
2022/07/08 00:22:16;;;;;;;3.38;1.10;;;;;;;;;;5061996;28;20527;-70
2022/07/08 00:24:42;;;;;;;5.68;1.35;;;;;;;;;;5062072;28;20438;-70
2022/07/08 00:27:10;;;;;;;3.28;1.10;;;;;;;;;;5061683;28;20197;-70
2022/07/08 00:29:37;;;;;;;3.92;1.30;;;;;;;;;;5061923;28;20244;-70
2022/07/08 00:32:03;;;;;;;3.67;1.20;;;;;;;;;;5062256;28;20276;-70
2022/07/08 00:34:29;;;;;;;5.30;1.30;;;;;;;;;;5062046;28;20235;-70
2022/07/08 00:36:56;;;;;;;3.13;1.15;;;;;;;;;;5061714;28;20204;-70
2022/07/08 00:39:22;;;;;;;3.47;1.45;;;;;;;;;;5061965;28;20235;-70
2022/07/08 00:41:48;;;;;;;3.65;1.42;;;;;;;;;;5061790;28;20205;-70
2022/07/08 00:44:16;;;;;;;3.95;1.50;;;;;;;;;;5061700;28;20228;-70
2022/07/08 00:46:42;;;;;;;6.97;1.25;;;;;;;;;;5061902;28;20243;-70
2022/07/08 00:49:08;;;;;;;3.42;1.52;;;;;;;;;;5061690;28;20197;-70
2022/07/08 00:51:35;;;;;;;6.90;1.77;;;;;;;;;;5061810;28;20204;-70
2022/07/08 00:54:01;;;;;;;2.97;1.40;;;;;;;;;;5061762;28;20189;-70
2022/07/08 00:56:28;;;;;;;2.78;1.23;;;;;;;;;;5061953;28;20201;-70
2022/07/08 00:58:55;;;;;;;3.15;1.40;;;;;;;;;;5061632;28;20223;-70
2022/07/08 01:01:22;;;;;;;6.28;1.80;;;;;;;;;;5061704;28;20197;-70
2022/07/08 01:03:49;;;;;;;8.55;1.75;;;;;;;;;;5061555;28;20217;-70
2022/07/08 01:06:15;;;;;;;2.88;1.40;;;;;;;;;;5064261;28;20406;-70
2022/07/08 01:08:43;;;;;;;7.80;1.63;;;;;;;;;;5065189;28;20201;-70
2022/07/08 01:11:09;;;;;;;4.72;1.92;;;;;;;;;;5065178;28;20562;-70
2022/07/08 01:13:36;;;;;;;6.03;1.50;;;;;;;;;;5064934;28;20200;-70
2022/07/08 01:16:02;;;;;;;5.15;1.95;;;;;;;;;;5064897;28;20197;-70
2022/07/08 01:18:31;;;;;;;7.80;1.73;;;;;;;;;;5064909;28;20501;-70
2022/07/08 01:20:58;;;;;;;4.57;1.63;;;;;;;;;;5065100;28;20428;-70
2022/07/08 01:23:25;;;;;;;4.55;2.00;;;;;;;;;;5064867;28;20217;-70
2022/07/08 01:25:52;;;;;;;6.13;2.28;;;;;;;;;;5065427;28;20201;-70
2022/07/08 01:28:18;;;;;;;5.38;2.25;;;;;;;;;;5065015;28;20204;-70
2022/07/08 01:33:47;;;;;;;7.95;2.13;;;;;;;;;;5064240;28;20440;-70
2022/07/08 01:36:15;;;;;;;6.47;2.33;;;;;;;;;;5064364;28;20204;-70
2022/07/08 01:38:41;;;;;;;5.25;2.03;;;;;;;;;;5064684;28;20424;-70
2022/07/08 01:41:08;;;;;;;4.78;1.83;;;;;;;;;;5064850;28;20424;-70
2022/07/08 01:43:34;;;;;;;7.95;2.05;;;;;;;;;;5064586;28;20223;-70
2022/07/08 01:46:00;;;;;;;5.57;2.40;;;;;;;;;;5064468;28;20204;-70
2022/07/08 01:48:26;;;;;;;5.28;1.95;;;;;;;;;;5064390;28;20435;-70
2022/07/08 01:50:53;;;;;;;6.35;2.70;;;;;;;;;;5064309;28;20203;-70
2022/07/08 01:53:20;;;;;;;7.93;2.40;;;;;;;;;;5064350;28;20414;-70
2022/07/08 01:55:47;;;;;;;5.40;2.20;;;;;;;;;;5064528;28;20197;-70
2022/07/08 01:58:13;;;;;;;5.88;2.17;;;;;;;;;;5064065;28;20204;-70
2022/07/08 02:00:39;;;;;;;6.40;2.47;;;;;;;;;;5064424;28;20197;-70
2022/07/08 02:03:06;;;;;;;5.35;1.98;;;;;;;;;;5064168;28;20220;-70
2022/07/08 02:05:34;;;;;;;5.95;2.15;;;;;;;;;;5064030;28;20228;-69
2022/07/08 02:08:00;;;;;;;9.45;2.25;;;;;;;;;;5063929;28;20197;-70
2022/07/08 02:10:27;;;;;;;3.88;2.20;;;;;;;;;;5064527;28;20520;-70
2022/07/08 02:12:53;;;;;;;6.00;2.10;;;;;;;;;;5064023;28;20247;-70
2022/07/08 02:15:19;;;;;;;8.45;2.40;;;;;;;;;;5064454;28;20260;-70
2022/07/08 02:17:46;;;;;;;7.28;1.80;;;;;;;;;;5062749;28;20209;-70
2022/07/08 02:20:13;;;;;;;5.22;1.80;;;;;;;;;;5063615;28;20204;-70
2022/07/08 02:22:40;;;;;;;8.05;2.20;;;;;;;;;;5063918;28;20197;-70
2022/07/08 02:25:07;;;;;;;7.05;1.90;;;;;;;;;;5063915;28;20395;-70
2022/07/08 02:27:35;;;;;;;8.38;2.20;;;;;;;;;;5063661;28;20197;-69
2022/07/08 02:30:01;;;;;;;6.20;1.80;;;;;;;;;;5063874;28;20585;-70
2022/07/08 02:32:27;;;;;;;4.07;1.83;;;;;;;;;;5063705;28;20197;-70
2022/07/08 02:34:53;;;;;;;6.00;1.92;;;;;;;;;;5063504;28;20201;-70
2022/07/08 02:37:20;;;;;;;4.72;1.75;;;;;;;;;;5063280;28;20196;-70
2022/07/08 02:39:47;;;;;;;7.22;1.90;;;;;;;;;;5063832;28;20201;-70
2022/07/08 02:42:13;;;;;;;6.22;1.70;;;;;;;;;;5063588;28;20205;-70
2022/07/08 02:44:40;;;;;;;8.40;2.10;;;;;;;;;;5063435;28;20224;-70
2022/07/08 02:47:08;;;;;;;4.72;1.67;;;;;;;;;;5063210;28;20203;-70
2022/07/08 02:49:34;;;;;;;4.32;1.75;;;;;;;;;;5063402;28;20224;-70
2022/07/08 02:52:01;;;;;;;4.10;1.73;;;;;;;;;;5063274;28;20197;-70
2022/07/08 02:54:27;;;;;;;9.05;1.83;;;;;;;;;;5063438;28;20383;-70
2022/07/08 02:56:53;;;;;;;4.28;1.70;;;;;;;;;;5063018;28;20208;-70
2022/07/08 02:59:19;;;;;;;6.63;1.88;;;;;;;;;;5063134;28;20235;-70
2022/07/08 03:01:47;;;;;;;5.30;2.05;;;;;;;;;;5062934;28;20197;-70
2022/07/08 03:04:13;;;;;;;4.13;1.70;;;;;;;;;;5063099;28;20217;-70
2022/07/08 03:06:40;;;;;;;10.77;1.90;;;;;;;;;;5062792;28;20544;-70
2022/07/08 03:09:06;;;;;;;7.38;2.08;;;;;;;;;;5062851;28;20417;-69
2022/07/08 03:11:32;;;;;;;6.18;1.80;;;;;;;;;;5062801;28;20453;-70
2022/07/08 03:13:58;;;;;;;9.80;1.65;;;;;;;;;;5062876;28;20194;-70
2022/07/08 03:16:25;;;;;;;5.78;1.90;;;;;;;;;;5062500;28;20200;-70
2022/07/08 03:18:52;;;;;;;6.97;1.98;;;;;;;;;;5062705;28;20211;-70
2022/07/08 03:21:18;;;;;;;7.03;2.00;;;;;;;;;;5063047;28;20228;-70
2022/07/08 03:23:45;;;;;;;7.53;2.20;;;;;;;;;;5062780;28;20266;-70
2022/07/08 03:26:11;;;;;;;6.30;1.77;;;;;;;;;;5062499;28;20207;-70
2022/07/08 03:28:37;;;;;;;8.25;2.40;;;;;;;;;;5062344;28;20204;-70
2022/07/08 03:31:04;;;;;;;3.78;1.40;;;;;;;;;;5062555;28;20378;-70
2022/07/08 03:33:30;;;;;;;6.00;1.88;;;;;;;;;;5062667;28;20193;-70
2022/07/08 03:35:57;;;;;;;5.50;1.80;;;;;;;;;;5062599;28;20216;-70
2022/07/08 03:38:24;;;;;;;4.10;1.52;;;;;;;;;;5062598;28;20197;-70
2022/07/08 03:43:34;;;;;;;4.97;1.98;;;;;;;;;;5062204;28;20270;-70
2022/07/08 03:46:00;;;;;;;4.38;1.73;;;;;;;;;;5062403;28;20197;-70
2022/07/08 03:48:26;;;;;;;3.42;1.50;;;;;;;;;;5062345;28;20197;-70
2022/07/08 03:50:53;;;;;;;7.95;1.60;;;;;;;;;;5062564;28;20201;-70
2022/07/08 03:53:21;;;;;;;5.75;1.77;;;;;;;;;;5062297;28;20193;-70
2022/07/08 03:55:47;;;;;;;3.38;1.48;;;;;;;;;;5062119;28;20357;-70
2022/07/08 03:58:14;;;;;;;5.32;2.15;;;;;;;;;;5062150;28;20247;-70
2022/07/08 04:00:41;;;;;;;5.80;1.83;;;;;;;;;;5062064;28;20197;-70
2022/07/08 04:03:07;;;;;;;7.60;1.77;;;;;;;;;;5062177;28;20422;-70
2022/07/08 04:05:33;;;;;;;5.53;1.58;;;;;;;;;;5062224;28;20224;-70
2022/07/08 04:08:00;;;;;;;12.20;2.30;;;;;;;;;;5062030;28;20196;-70
2022/07/08 04:10:27;;;;;;;4.78;2.33;;;;;;;;;;5062145;28;20489;-70
2022/07/08 04:12:53;;;;;;;3.83;1.60;;;;;;;;;;5062288;28;20196;-70
2022/07/08 04:15:20;;;;;;;6.15;1.73;;;;;;;;;;5062072;28;20193;-69
2022/07/08 04:17:46;;;;;;;5.22;1.80;;;;;;;;;;5061817;28;20504;-69
2022/07/08 04:20:12;;;;;;;5.38;1.50;;;;;;;;;;5061953;28;20205;-69
2022/07/08 04:22:38;;;;;;;3.90;1.70;;;;;;;;;;5061987;28;20197;-69
2022/07/08 04:25:05;;;;;;;8.48;1.92;;;;;;;;;;5061761;28;20225;-69
2022/07/08 04:27:33;;;;;;;3.47;1.58;;;;;;;;;;5061902;28;20201;-69
2022/07/08 04:29:59;;;;;;;8.63;2.33;;;;;;;;;;5061886;28;20197;-69
2022/07/08 04:32:25;;;;;;;6.32;1.83;;;;;;;;;;5062027;28;20231;-69
2022/07/08 04:34:52;;;;;;;5.57;2.00;;;;;;;;;;5061931;28;20512;-69
2022/07/08 04:37:18;;;;;;;4.75;1.77;;;;;;;;;;5061733;28;20197;-69
2022/07/08 04:39:45;;;;;;;2.92;1.77;;;;;;;;;;5062446;28;20203;-69
2022/07/08 04:42:11;;;;;;;7.72;1.88;;;;;;;;;;5065879;28;20327;-69
2022/07/08 04:44:39;;;;;;;7.43;1.30;;;;;;;;;;5065616;28;20223;-69
2022/07/08 04:47:05;;;;;;;8.02;1.83;;;;;;;;;;5065518;28;20204;-69
2022/07/08 04:49:31;;;;;;;4.88;2.40;;;;;;;;;;5065679;28;20580;-69
2022/07/08 04:51:58;;;;;;;11.90;1.80;;;;;;;;;;5065771;28;20197;-69
2022/07/08 04:54:24;;;;;;;5.88;2.00;;;;;;;;;;5065506;28;20201;-69
2022/07/08 04:56:51;;;;;;;6.07;1.92;;;;;;;;;;5065554;28;20197;-69
2022/07/08 04:59:17;;;;;;;7.22;2.10;;;;;;;;;;5065591;28;20235;-69
2022/07/08 05:01:45;;;;;;;5.70;2.00;;;;;;;;;;5065369;28;20204;-69
2022/07/08 05:04:11;;;;;;;6.30;2.15;;;;;;;;;;5065083;28;20228;-69
2022/07/08 05:06:37;;;;;;;4.03;1.75;;;;;;;;;;5064566;28;20544;-69
2022/07/08 05:09:03;;;;;;;6.68;1.80;;;;;;;;;;5064803;28;20197;-69
2022/07/08 05:11:30;;;;;;;6.10;2.03;;;;;;;;;;5065394;28;20231;-69
2022/07/08 05:13:56;;;;;;;4.28;1.45;;;;;;;;;;5065264;28;20201;-69
2022/07/08 05:16:22;;;;;;;4.57;1.45;;;;;;;;;;5064874;28;20197;-69
2022/07/08 05:18:50;;;;;;;6.60;1.90;;;;;;;;;;5065025;28;20303;-69
2022/07/08 05:21:16;;;;;;;7.75;1.55;;;;;;;;;;5064982;28;20530;-69
2022/07/08 05:23:43;;;;;;;6.95;2.05;;;;;;;;;;5064896;28;20347;-69
2022/07/08 05:26:09;;;;;;;9.32;2.40;;;;;;;;;;5064790;28;20251;-69
2022/07/08 05:28:35;;;;;;;5.63;1.90;;;;;;;;;;5064783;28;20212;-68
2022/07/08 05:31:01;;;;;;;7.57;2.00;;;;;;;;;;5064431;28;20189;-68
2022/07/08 05:33:28;;;;;;;4.80;1.70;;;;;;;;;;5064407;28;20215;-69
2022/07/08 05:35:55;;;;;;;4.75;1.50;;;;;;;;;;5064165;28;20205;-69
2022/07/08 05:38:22;;;;;;;6.70;2.17;;;;;;;;;;5064144;28;20208;-69
2022/07/08 05:40:48;;;;;;;4.75;1.63;;;;;;;;;;5064289;28;20204;-68
2022/07/08 05:43:14;;;;;;;8.13;1.70;;;;;;;;;;5064266;28;20405;-69
2022/07/08 05:45:40;;;;;;;5.55;1.73;;;;;;;;;;5063959;28;20221;-69
2022/07/08 05:48:07;;;;;;;5.15;1.70;;;;;;;;;;5063851;28;20243;-69
2022/07/08 05:50:33;;;;;;;6.28;1.83;;;;;;;;;;5064408;28;20197;-69
2022/07/08 05:53:01;;;;;;;7.15;1.85;;;;;;;;;;5064443;28;20220;-69
2022/07/08 05:55:27;;;;;;;7.10;1.65;;;;;;;;;;5064260;28;20193;-69
2022/07/08 05:57:53;;;;;;;7.57;1.83;;;;;;;;;;5063694;28;20204;-69
2022/07/08 06:00:21;;;;;;;9.70;1.67;;;;;;;;;;5064026;28;20197;-69
2022/07/08 06:02:49;;;;;;;7.85;1.58;;;;;;;;;;5064321;28;20201;-69
2022/07/08 06:05:15;;;;;;;6.18;1.77;;;;;;;;;;5054176;28;20251;-70
2022/07/08 06:07:42;;;;;;;3.58;1.65;;;;;;;;;;5049086;28;20444;-70
2022/07/08 06:10:10;;;;;;;2.83;1.63;;;;;;;;;;5053875;28;20520;-70
2022/07/08 06:12:37;;;;;;;8.98;1.90;;;;;;;;;;5044712;28;20212;-60
2022/07/08 06:15:03;;;;;;;4.65;1.50;;;;;;;;;;5058122;28;20235;-61
2022/07/08 06:17:30;;;;;;;6.35;1.55;;;;;;;;;;5044886;28;20209;-61
2022/07/08 06:19:56;;;;;;;7.40;1.73;;;;;;;;;;5034738;28;20221;-61
2022/07/08 06:22:22;;;;;;;8.70;1.70;;;;;;;;;;5050461;28;20469;-60
2022/07/08 06:24:49;;;;;;;7.80;1.50;;;;;;;;;;5048161;28;20571;-60
2022/07/08 06:27:16;;;;;;;9.07;2.05;;;;;;;;;;5034873;28;20277;-60
2022/07/08 06:29:42;;;;;;;5.38;1.60;;;;;;;;;;5049406;28;20219;-60
2022/07/08 06:32:09;;;;;;;7.85;2.00;;;;;;;;;;5053895;28;20217;-61
2022/07/08 06:34:35;;;;;;;7.70;2.10;;;;;;;;;;5056490;28;20209;-60
2022/07/08 06:37:02;;;;;;;9.55;1.95;;;;;;;;;;5055377;28;20220;-60
2022/07/08 06:39:28;;;;;;;13.68;2.30;;;;;;;;;;5053506;28;20240;-60
2022/07/08 06:41:54;;;;;;;9.18;1.63;;;;;;;;;;5048175;28;20219;-60
2022/07/08 06:44:22;;;;;;;11.13;2.17;;;;;;;;;;5055907;28;20427;-60
2022/07/08 06:46:48;;;;;;;6.70;1.73;;;;;;;;;;5055001;28;20221;-60
2022/07/08 06:49:14;;;;;;;3.28;1.23;;;;;;;;;;5043533;28;20393;-60
2022/07/08 06:51:41;;;;;;;9.40;1.83;;;;;;;;;;5054622;28;20220;-61
2022/07/08 06:56:50;;;;;;;6.70;1.55;;;;;;;;;;5039761;28;20262;-60
2022/07/08 06:59:17;;;;;;;6.50;1.80;;;;;;;;;;5035475;28;20232;-59
2022/07/08 07:01:44;;;;;;;11.07;2.10;;;;;;;;;;5038591;28;20210;-61
2022/07/08 07:04:11;;;;;;;5.65;1.58;;;;;;;;;;5047722;28;20560;-59
2022/07/08 07:06:37;;;;;;;4.85;1.80;;;;;;;;;;5053011;28;20536;-60
2022/07/08 07:09:04;;;;;;;4.35;1.60;;;;;;;;;;5037780;28;20495;-61
2022/07/08 07:11:30;;;;;;;5.40;1.48;;;;;;;;;;5051896;28;20232;-59
2022/07/08 07:13:56;;;;;;;5.57;1.50;;;;;;;;;;5054622;28;20216;-61
2022/07/08 07:16:23;;;;;;;5.88;1.60;;;;;;;;;;5055148;28;20232;-60
2022/07/08 07:18:50;;;;;;;12.88;1.95;;;;;;;;;;5043345;28;20549;-61
2022/07/08 07:21:16;;;;;;;6.45;1.25;;;;;;;;;;5035583;28;20486;-61
2022/07/08 07:23:43;;;;;;;3.78;2.20;;;;;;;;;;5034550;28;20214;-61
2022/07/08 07:26:09;;;;;;;5.88;1.70;;;;;;;;;;5033354;28;20240;-60
2022/07/08 07:28:36;;;;;;;4.50;1.55;;;;;;;;;;5033745;28;20221;-60
2022/07/08 07:31:02;;;;;;;9.40;2.25;;;;;;;;;;5043532;28;20478;-60
2022/07/08 07:33:28;;;;;;;7.53;1.38;;;;;;;;;;5054192;28;20312;-60
2022/07/08 07:35:57;;;;;;;5.32;1.35;;;;;;;;;;5054502;28;20209;-60
2022/07/08 07:38:23;;;;;;;5.82;1.42;;;;;;;;;;5051035;28;20280;-60
2022/07/08 07:40:49;;;;;;;4.70;1.42;;;;;;;;;;5054180;28;20212;-61
2022/07/08 07:43:15;;;;;;;2.92;1.20;;;;;;;;;;5054745;28;20521;-60
2022/07/08 07:45:42;;;;;;;5.95;1.40;;;;;;;;;;5047498;28;20440;-61
2022/07/08 07:48:08;;;;;;;3.42;1.30;;;;;;;;;;5035033;28;20222;-62
2022/07/08 07:50:34;;;;;;;6.68;1.40;;;;;;;;;;5054245;28;20213;-62
2022/07/08 07:53:02;;;;;;;5.15;1.35;;;;;;;;;;5053838;28;20220;-60
2022/07/08 07:55:28;;;;;;;3.05;1.75;;;;;;;;;;5049165;28;20367;-62
2022/07/08 07:57:54;;;;;;;3.67;1.23;;;;;;;;;;5038309;28;20217;-62
2022/07/08 08:00:21;;;;;;;5.18;1.00;;;;;;;;;;5042211;28;20387;-62
2022/07/08 08:02:47;;;;;;;2.80;1.20;;;;;;;;;;5041581;28;20210;-63
2022/07/08 08:05:13;;;;;;;3.53;1.30;;;;;;;;;;5046176;28;20237;-63
2022/07/08 08:07:40;;;;;;;7.32;1.45;;;;;;;;;;5037034;28;20228;-61
2022/07/08 08:10:09;;;;;;;5.13;1.25;;;;;;;;;;5043559;28;20208;-60
2022/07/08 08:12:35;;;;;;;6.32;1.40;;;;;;;;;;5053927;28;20219;-60
2022/07/08 08:15:01;;;;;;;8.75;1.23;;;;;;;;;;5054771;28;20209;-60
2022/07/08 08:17:28;;;;;;;2.97;1.10;;;;;;;;;;5037515;28;20220;-60
2022/07/08 08:19:54;;;;;;;2.30;1.05;;;;;;;;;;5055088;28;20236;-61
2022/07/08 08:22:20;;;;;;;3.42;1.05;;;;;;;;;;5046788;28;20220;-61
2022/07/08 08:24:47;;;;;;;7.25;1.38;;;;;;;;;;5037677;28;20240;-61
2022/07/08 08:27:14;;;;;;;4.30;1.10;;;;;;;;;;5037595;28;20544;-60
2022/07/08 08:29:40;;;;;;;3.13;1.10;;;;;;;;;;5037897;28;20210;-61
2022/07/08 08:32:07;;;;;;;4.80;1.38;;;;;;;;;;5055772;28;20212;-61
2022/07/08 08:34:33;;;;;;;4.20;1.63;;;;;;;;;;5044056;28;20213;-61
2022/07/08 08:37:02;;;;;;;4.78;1.80;;;;;;;;;;5037024;28;20220;-62
2022/07/08 08:39:28;;;;;;;2.78;1.42;;;;;;;;;;5036639;28;20286;-60
2022/07/08 08:41:54;;;;;;;3.13;1.42;;;;;;;;;;5050109;28;20424;-59
2022/07/08 08:44:22;;;;;;;6.05;1.73;;;;;;;;;;5050155;28;20217;-61
2022/07/08 08:46:49;;;;;;;6.68;1.73;;;;;;;;;;5037045;28;20551;-59
2022/07/08 08:49:17;;;;;;;2.72;1.02;;;;;;;;;;5037339;28;20220;-61
2022/07/08 08:51:45;;;;;;;2.78;1.00;;;;;;;;;;5049253;28;20394;-61
2022/07/08 08:54:13;;;;;;;4.25;1.88;;;;;;;;;;5037429;28;20213;-61
2022/07/08 08:56:40;;;;;;;12.90;4.35;;;;;;;;;;5045639;28;20216;-61
2022/07/08 08:59:06;;;;;;;5.45;1.40;;;;;;;;;;5043045;28;20389;-61
2022/07/08 09:01:34;;;;;;;6.65;1.50;;;;;;;;;;5044098;28;20210;-61
2022/07/08 09:04:00;;;;;;;6.47;1.20;;;;;;;;;;5045449;28;20220;-60
2022/07/08 09:06:27;;;;;;;4.15;1.10;;;;;;;;;;5036740;28;20529;-61
2022/07/08 09:08:53;;;;;;;3.45;1.10;;;;;;;;;;5057262;28;20274;-61
2022/07/08 09:11:19;;;;;;;4.90;1.63;;;;;;;;;;5040386;28;20299;-61
2022/07/08 09:13:48;;;;;;;6.18;2.33;;;;;;;;;;5040706;28;20678;-61
2022/07/08 09:16:14;;;;;;;5.38;1.85;;;;;;;;;;5055144;28;20355;-60
2022/07/08 09:18:42;;;;;;;4.80;2.72;;;;;;;;;;5048614;28;20751;-60
2022/07/08 09:21:10;;;;;;;5.07;1.35;;;;;;;;;;5042608;28;20398;-60
2022/07/08 09:23:36;;;;;;;3.30;1.40;;;;;;;;;;5054481;28;20280;-61
2022/07/08 09:26:04;;;;;;;5.80;1.30;;;;;;;;;;5050231;28;20233;-61
2022/07/08 09:28:31;;;;;;;5.53;2.97;;;;;;;;;;5045684;28;20569;-61
2022/07/08 09:30:58;;;;;;;4.25;1.60;;;;;;;;;;5052633;28;20214;-61
2022/07/08 09:33:24;;;;;;;4.85;1.48;;;;;;;;;;5048345;28;20226;-61
2022/07/08 09:35:52;;;;;;;4.60;1.42;;;;;;;;;;5036738;28;20201;-61
2022/07/08 09:38:19;;;;;;;5.35;1.00;;;;;;;;;;5036144;28;20466;-61
2022/07/08 09:40:54;;;;;;;5.45;1.48;;;;;;;;;;5051209;28;20229;-61
2022/07/08 09:43:21;;;;;;;2.90;1.10;;;;;;;;;;5056345;28;20216;-61
2022/07/08 09:45:47;;;;;;;5.15;1.48;;;;;;;;;;5055527;28;20236;-62
2022/07/08 09:48:14;;;;;;;4.18;1.17;;;;;;;;;;5055819;28;20220;-61
2022/07/08 09:50:41;;;;;;;7.03;1.10;;;;;;;;;;5048040;28;20226;-61
2022/07/08 09:53:16;;;;;;;4.45;1.20;;;;;;;;;;5055885;28;20224;-61
2022/07/08 09:55:42;;;;;;;5.40;1.05;;;;;;;;;;5047714;28;20215;-60
2022/07/08 09:58:11;;;;;;;4.88;1.17;;;;;;;;;;5049703;28;20255;-60
2022/07/08 10:00:37;;;;;;;2.88;0.95;;;;;;;;;;5035873;28;20221;-60
2022/07/08 10:03:04;;;;;;;2.85;0.80;;;;;;;;;;5043417;28;20213;-61
2022/07/08 10:05:31;;;;;;;4.88;1.20;;;;;;;;;;5043542;28;20236;-62
2022/07/08 10:07:57;;;;;;;10.13;1.52;;;;;;;;;;5043600;28;20534;-62
2022/07/08 10:10:25;;;;;;;2.58;1.35;;;;;;;;;;5053415;28;20213;-61
2022/07/08 10:12:53;;;;;;;3.85;1.13;;;;;;;;;;5052462;28;20399;-61
2022/07/08 10:15:20;;;;;;;4.38;1.40;;;;;;;;;;5055693;28;20209;-61
2022/07/08 10:17:47;;;;;;;2.28;1.30;;;;;;;;;;5048364;28;20383;-61
2022/07/08 10:20:15;;;;;;;3.28;1.27;;;;;;;;;;5055172;28;20573;-61
2022/07/08 10:22:41;;;;;;;2.55;1.20;;;;;;;;;;5053949;28;20209;-61
2022/07/08 10:25:09;;;;;;;6.03;1.00;;;;;;;;;;5035858;28;20394;-61
2022/07/08 10:27:36;;;;;;;4.38;1.08;;;;;;;;;;5035785;28;20436;-59
2022/07/08 10:30:15;;;;;;;3.40;0.93;;;;;;;;;;5042749;28;20448;-59
2022/07/08 10:32:41;;;;;;;6.43;0.90;;;;;;;;;;5036049;28;20213;-59
2022/07/08 10:35:09;;;;;;;4.13;1.20;;;;;;;;;;5053603;28;20212;-59
2022/07/08 10:37:48;;;;;;;3.38;1.27;;;;;;;;;;5053902;28;20250;-59
2022/07/08 10:40:34;;;;;;;4.63;1.20;;;;;;;;;;5052828;28;20212;-59
2022/07/08 10:43:20;;;;;;;5.35;1.20;;;;;;;;;;5036305;28;20213;-59
2022/07/08 10:45:58;;;;;;;3.28;1.00;;;;;;;;;;5055155;28;20318;-60
2022/07/08 10:48:26;;;;;;;5.97;1.60;;;;;;;;;;5051479;28;20427;-58
2022/07/08 10:50:52;;;;;;;3.50;0.93;;;;;;;;;;5039849;28;20412;-59
2022/07/08 10:53:19;;;;;;;4.38;1.15;;;;;;;;;;5035519;28;20217;-61
2022/07/08 10:55:46;;;;;;;3.60;1.25;;;;;;;;;;5035103;28;20217;-61
2022/07/08 10:58:14;;;;;;;9.15;2.97;;;;;;;;;;5047056;28;20210;-59
2022/07/08 11:00:40;;;;;;;5.82;1.05;;;;;;;;;;5040917;28;20239;-61
2022/07/08 11:03:09;;;;;;;3.05;1.35;;;;;;;;;;5037635;28;20525;-60
2022/07/08 11:05:37;;;;;;;7.00;1.30;;;;;;;;;;5034836;28;20233;-59
2022/07/08 11:08:22;;;;;;;2.42;1.08;;;;;;;;;;5034247;28;20197;-61
2022/07/08 11:10:48;;;;;;;3.40;1.02;;;;;;;;;;5034619;28;20543;-61
2022/07/08 11:13:16;;;;;;;8.00;1.33;;;;;;;;;;5041717;28;20217;-61
2022/07/08 11:15:42;;;;;;;4.28;1.10;;;;;;;;;;5048050;28;20209;-61
2022/07/08 11:18:08;;;;;;;4.80;1.33;;;;;;;;;;5034869;28;20521;-60
2022/07/08 11:20:35;;;;;;;3.25;1.10;;;;;;;;;;5036739;28;20541;-61
2022/07/08 11:23:04;;;;;;;4.88;1.05;;;;;;;;;;5051563;28;20216;-61
2022/07/08 11:25:31;;;;;;;4.18;1.23;;;;;;;;;;5038915;28;20474;-61
2022/07/08 11:28:00;;;;;;;2.50;0.80;;;;;;;;;;5053935;28;20284;-61
2022/07/08 11:30:29;;;;;;;8.18;1.20;;;;;;;;;;5054357;28;20355;-61
2022/07/08 11:32:55;;;;;;;4.75;0.90;;;;;;;;;;5042694;28;20255;-61
2022/07/08 11:35:22;;;;;;;2.65;0.80;;;;;;;;;;5047032;28;20220;-59
2022/07/08 11:37:48;;;;;;;3.78;1.10;;;;;;;;;;5044933;28;20643;-61
2022/07/08 11:40:16;;;;;;;4.70;0.88;;;;;;;;;;5046217;28;20213;-60
2022/07/08 11:42:43;;;;;;;1.23;0.70;;;;;;;;;;5053593;28;20577;-61
2022/07/08 11:45:10;;;;;;;2.72;0.80;;;;;;;;;;5039735;28;20233;-59
2022/07/08 11:47:38;;;;;;;5.78;0.95;;;;;;;;;;5033713;28;20237;-61
2022/07/08 11:50:05;;;;;;;3.65;0.80;;;;;;;;;;5034463;28;20208;-61
2022/07/08 11:52:31;;;;;;;3.45;0.65;;;;;;;;;;5034457;28;20217;-60
2022/07/08 11:54:58;;;;;;;2.42;0.93;;;;;;;;;;5047514;28;20216;-59
2022/07/08 11:57:24;;;;;;;4.50;1.10;;;;;;;;;;5053826;28;20244;-60
2022/07/08 11:59:51;;;;;;;2.72;0.85;;;;;;;;;;5038554;28;20209;-60
2022/07/08 12:02:19;;;;;;;1.83;0.90;;;;;;;;;;5039844;28;20208;-59
2022/07/08 12:04:48;;;;;;;2.70;0.95;;;;;;;;;;5054445;28;20216;-61
2022/07/08 12:07:22;;;;;;;4.13;0.90;;;;;;;;;;5053182;28;20235;-61
2022/07/08 12:09:55;;;;;;;3.72;0.93;;;;;;;;;;5053595;28;20219;-61
2022/07/08 12:12:22;;;;;;;6.15;0.90;;;;;;;;;;5050533;28;20545;-61
2022/07/08 12:14:48;;;;;;;2.45;1.02;;;;;;;;;;5049705;28;20209;-62
2022/07/08 12:17:21;;;;;;;2.78;0.82;;;;;;;;;;5052747;28;20208;-61
2022/07/08 12:19:52;;;;;;;3.55;1.10;;;;;;;;;;5035075;28;20398;-61
2022/07/08 12:22:38;;;;;;;3.28;0.77;;;;;;;;;;5033998;28;20265;-60
2022/07/08 12:25:05;;;;;;;2.70;0.98;;;;;;;;;;5051281;28;20539;-60
2022/07/08 12:27:31;;;;;;;5.63;0.90;;;;;;;;;;5048438;28;20430;-61
2022/07/08 12:30:02;;;;;;;1.67;0.60;;;;;;;;;;5033903;28;20258;-59
2022/07/08 12:32:36;;;;;;;3.42;1.00;;;;;;;;;;5050790;28;20587;-61
2022/07/08 12:35:04;;;;;;;3.65;1.20;;;;;;;;;;5036406;28;20366;-60
2022/07/08 12:37:30;;;;;;;1.90;0.73;;;;;;;;;;5033606;28;20217;-60
2022/07/08 12:39:57;;;;;;;2.80;0.95;;;;;;;;;;5034160;28;20224;-62
2022/07/08 12:42:27;;;;;;;2.85;0.90;;;;;;;;;;5038789;28;20217;-61
2022/07/08 12:44:54;;;;;;;4.72;1.00;;;;;;;;;;5050554;28;20235;-61
2022/07/08 12:47:20;;;;;;;2.80;1.05;;;;;;;;;;5037762;28;20237;-62
2022/07/08 12:49:47;;;;;;;1.48;0.70;;;;;;;;;;5033930;28;21040;-63
2022/07/08 12:52:15;;;;;;;2.33;1.00;;;;;;;;;;5041992;28;20220;-60
2022/07/08 12:54:41;;;;;;;4.07;0.98;;;;;;;;;;5043596;28;20213;-62
2022/07/08 12:57:08;;;;;;;2.03;1.00;;;;;;;;;;5048811;28;20486;-59
2022/07/08 12:59:34;;;;;;;4.25;0.85;;;;;;;;;;5053281;28;20219;-60
2022/07/08 13:02:01;;;;;;;2.03;0.98;;;;;;;;;;5045904;28;20438;-61
2022/07/08 13:04:28;;;;;;;4.68;0.85;;;;;;;;;;5049687;28;20220;-62
2022/07/08 13:06:54;;;;;;;3.60;0.90;;;;;;;;;;5057019;28;20232;-61
2022/07/08 13:09:22;;;;;;;2.50;0.80;;;;;;;;;;5054092;28;20220;-61
2022/07/08 13:11:51;;;;;;;5.10;1.30;;;;;;;;;;5037380;28;20220;-61
2022/07/08 13:14:18;;;;;;;2.45;0.80;;;;;;;;;;5043943;28;20375;-61
2022/07/08 13:16:44;;;;;;;4.25;0.90;;;;;;;;;;5056767;28;20212;-62
2022/07/08 13:19:11;;;;;;;1.45;0.75;;;;;;;;;;5044975;28;20563;-61
2022/07/08 13:21:38;;;;;;;6.35;0.73;;;;;;;;;;5048849;28;20251;-61
2022/07/08 13:24:05;;;;;;;3.25;0.82;;;;;;;;;;5052320;28;20244;-61
2022/07/08 13:26:33;;;;;;;4.68;0.90;;;;;;;;;;5038988;28;20555;-61
2022/07/08 13:28:59;;;;;;;5.70;1.10;;;;;;;;;;5053000;28;20232;-61
2022/07/08 13:31:25;;;;;;;3.10;1.00;;;;;;;;;;5037077;28;20554;-62
2022/07/08 13:33:53;;;;;;;5.40;1.02;;;;;;;;;;5036724;28;20235;-62
2022/07/08 13:36:19;;;;;;;4.22;0.88;;;;;;;;;;5051087;28;20503;-62
2022/07/08 13:38:46;;;;;;;5.32;1.00;;;;;;;;;;5045298;28;20204;-61
2022/07/08 13:41:12;;;;;;;5.75;0.98;;;;;;;;;;5050039;28;20213;-62
2022/07/08 13:43:40;;;;;;;3.25;0.93;;;;;;;;;;5036114;28;20213;-60
2022/07/08 13:46:06;;;;;;;4.97;1.05;;;;;;;;;;5037341;28;20213;-60
2022/07/08 13:48:33;;;;;;;3.50;1.00;;;;;;;;;;5047081;28;20448;-60
2022/07/08 13:50:59;;;;;;;4.05;0.90;;;;;;;;;;5046967;28;20376;-61
2022/07/08 13:53:25;;;;;;;4.93;0.90;;;;;;;;;;5036319;28;20276;-61
2022/07/08 13:55:52;;;;;;;2.60;0.95;;;;;;;;;;5047436;28;20217;-61
2022/07/08 13:58:18;;;;;;;3.28;0.88;;;;;;;;;;5055308;28;20411;-61
2022/07/08 14:00:46;;;;;;;4.68;0.82;;;;;;;;;;5055927;28;20243;-61
2022/07/08 14:03:12;;;;;;;6.20;1.10;;;;;;;;;;5036973;28;20213;-60
2022/07/08 14:05:38;;;;;;;3.85;0.75;;;;;;;;;;5045676;28;20399;-60
2022/07/08 14:08:04;;;;;;;2.08;1.00;;;;;;;;;;5055413;28;20235;-62
2022/07/08 14:10:31;;;;;;;3.63;1.15;;;;;;;;;;5056047;28;20212;-61
2022/07/08 14:12:58;;;;;;;1.83;0.90;;;;;;;;;;5054704;28;20491;-61
2022/07/08 14:15:24;;;;;;;3.15;0.88;;;;;;;;;;5044009;28;20292;-62
2022/07/08 14:17:52;;;;;;;3.17;1.00;;;;;;;;;;5035208;28;20285;-62
2022/07/08 14:20:18;;;;;;;3.55;0.80;;;;;;;;;;5047122;28;20295;-61
2022/07/08 14:22:44;;;;;;;2.30;1.00;;;;;;;;;;5051160;28;20213;-62
2022/07/08 14:25:11;;;;;;;6.10;1.10;;;;;;;;;;5051291;28;20256;-61
2022/07/08 14:27:37;;;;;;;5.32;1.20;;;;;;;;;;5045973;28;20225;-61
2022/07/08 14:30:04;;;;;;;3.72;0.90;;;;;;;;;;5057797;28;20209;-61
2022/07/08 14:32:30;;;;;;;3.30;0.82;;;;;;;;;;5057650;28;20216;-61
2022/07/08 14:34:58;;;;;;;2.95;0.82;;;;;;;;;;5057683;28;20252;-61
2022/07/08 14:37:24;;;;;;;2.38;1.00;;;;;;;;;;5047966;28;20347;-61
2022/07/08 14:39:51;;;;;;;3.60;1.13;;;;;;;;;;5037427;28;20563;-61
2022/07/08 14:42:17;;;;;;;7.85;1.02;;;;;;;;;;5037892;28;20241;-61
2022/07/08 14:44:43;;;;;;;2.08;0.98;;;;;;;;;;5037792;28;20209;-61
2022/07/08 14:47:10;;;;;;;5.10;1.05;;;;;;;;;;5037454;28;20564;-61
2022/07/08 14:49:36;;;;;;;2.15;0.90;;;;;;;;;;5037752;28;20209;-61